Riverton, Indiana
Current Conditions -  °F | °C
As of 11:15 AM on Wednesday 22 Oct 2014 (Local Time) from KRSV Reporting Station
Clear Clear  
Wind Chill: 12°   Ceiling: Unl
Heat Index: 12°   Visibility: 10mi
Dew Point:   Wind: 8mph
Humidity: 63%   Direction: 80°E
Pressure: 30.35"   Gusts: NA
Location:  39.0138°N, 87.523°W
Report Text: KRSV 221515Z AUTO 08007KT 10SM CLR 12/05 A3035 RMK AO2 T01190051
Loading
Personal Weather Stations






























Interactive Weather Map
Tropical Storm Tracking
New forecast layout! Learn more

10-Day Weather Forecast

Advertisements
Track Severe Weather on mobile